Nearby METAR Reports

 

KDWH - Houston/Dw Hooks, Texas, USA
Distance from station: WNW 3mi, 6km
Updated: 12/06/2022 12:53am
Overcast
Overcast
 Wind from SSW
Wind: SSW 13 mph , 20 km/h, Gust: 20 mph , 31 km/h
Temperature: 72°F , 22°C
Dew Point: 68°F , 20°C
Humidity: 88%
Barometer: 29.93 inHg , 1013.5 hPa
Clouds: Overcast
Visibility: 10 miles , 16 km
Cloud details: Mostly cloudy 1400 ft
Overcast 2000 ft
2022/12/06 06:53 KDWH 060653Z AUTO 20011G17KT 10SM BKN014 OVC020 22/20 A2993 RMK AO2 SLP132 T02220200
KIAH - Houston/Intnl, Texas, USA
Distance from station: ESE 9mi, 14km
Updated: 12/06/2022 12:53am
Mostly cloudy
Mostly cloudy
 Wind from varies
Wind: varies 7 mph , 11 km/h
Temperature: 72°F , 22°C
Dew Point: 70°F , 21°C
Humidity: 94%
Barometer: 29.93 inHg , 1013.5 hPa
Clouds: Mostly cloudy
Visibility: 10 miles , 16 km
Cloud details: Mostly cloudy 1000 ft
Mostly cloudy 25000 ft
2022/12/06 06:53 KIAH 060653Z VRB06KT 10SM BKN010 BKN250 22/21 A2993 RMK AO2 SLP134 T02170206
 
KCXO - Conroe, Texas, USA
Distance from station: NNE 21mi, 34km
Updated: 12/06/2022 12:53am
Mostly cloudy
Mostly cloudy
 Wind from SSW
Wind: SSW 10 mph , 17 km/h
Temperature: 70°F , 21°C
Dew Point: 68°F , 20°C
Humidity: 94%
Barometer: 29.93 inHg , 1013.5 hPa
Clouds: Mostly cloudy
Visibility: 10 miles , 16 km
Cloud details: Mostly cloudy 1400 ft
Mostly cloudy 2300 ft
2022/12/06 06:53 KCXO 060653Z AUTO 20009KT 10SM BKN014 BKN023 21/20 A2993 RMK AO2 SLP131 T02060200
KMCJ - Houston/Univ, Texas, USA
Distance from station: SSE 24mi, 39km
Updated: 12/06/2022 12:55am
Mist, Overcast
Mist, Overcast
 Wind from S
Wind: S 8 mph , 13 km/h, Gust: 17 mph , 28 km/h
Temperature: 70°F , 21°C
Dew Point: 70°F , 21°C
Humidity: 100%
Barometer: 29.92 inHg , 1013.2 hPa
Summary: Mist
Clouds: Overcast
Visibility: 5 miles , 8 km
Cloud details: Overcast 600 ft
2022/12/06 06:55 KMCJ 060655Z AUTO 19007G15KT 170V270 5SM BR OVC006 21/21 A2992 RMK A01
 
KTME - Houston Exec, Texas, USA
Distance from station: SW 30mi, 48km
Updated: 12/06/2022 12:55am
Mist, Overcast
Mist, Overcast
 Wind from SSW
Wind: SSW 10 mph , 17 km/h
Temperature: 70°F , 21°C
Dew Point: 70°F , 21°C
Humidity: 100%
Barometer: 29.94 inHg , 1013.9 hPa
Summary: Mist
Clouds: Overcast
Visibility: 5 miles , 8 km
Cloud details: Overcast 400 ft
2022/12/06 06:55 KTME 060655Z AUTO 21009KT 5SM BR OVC004 21/21 A2994 RMK AO2
KHOU - Houston/Hobby, Texas, USA
Distance from station: SSE 32mi, 51km
Updated: 12/06/2022 12:53am
Partly cloudy
Partly cloudy
 Wind from S
Wind: S 9 mph , 15 km/h
Temperature: 70°F , 21°C
Dew Point: 68°F , 20°C
Humidity: 94%
Barometer: 29.93 inHg , 1013.5 hPa
Clouds: Partly cloudy
Visibility: 10 miles , 16 km
Cloud details: Few Clouds 2500 ft
Partly cloudy 25000 ft
2022/12/06 06:53 KHOU 060653Z 19008KT 10SM FEW025 SCT250 21/20 A2993 RMK AO2 SLP139 T02110200
 
KSGR - Houston/Sugar La, Texas, USA
Distance from station: SSW 32mi, 51km
Updated: 12/06/2022 12:53am
Overcast
Overcast
 Wind from S
Wind: S 8 mph , 13 km/h
Temperature: 70°F , 21°C
Dew Point: 66°F , 19°C
Humidity: 88%
Barometer: 29.92 inHg , 1013.2 hPa
Clouds: Overcast
Visibility: 10 miles , 16 km
Cloud details: Partly cloudy 600 ft
Overcast 1700 ft
2022/12/06 06:53 KSGR 060653Z AUTO 19007KT 10SM SCT006 OVC017 21/19 A2992 RMK AO2 SLP134 T02110194
K6R3 - Cleveland Muni, Texas, USA
Distance from station: NE 36mi, 58km
Updated: 12/06/2022 12:35am
Overcast
Overcast
 
Barometer: 29.94 inHg , 1013.9 hPa
Clouds: Overcast
Cloud details: Mostly cloudy 1000 ft
Overcast 1300 ft
2022/12/06 06:35 K6R3 060635Z AUTO BKN010 OVC013 A2994 RMK AO2 PWINO TSNO
 
KAXH - Houston/Southwst, Texas, USA
Distance from station: S 37mi, 60km
Updated: 12/06/2022 12:55am
Mist, Partly cloudy
Mist, Partly cloudy
 Wind from calm
Wind: Calm
Temperature: 68°F , 20°C
Dew Point: 66°F , 19°C
Humidity: 94%
Barometer: 29.95 inHg , 1014.2 hPa
Summary: Mist
Clouds: Partly cloudy
Visibility: 5 miles , 8 km
Cloud details: Partly cloudy 900 ft
Partly cloudy 1700 ft
2022/12/06 06:55 KAXH 060655Z AUTO 00000KT 5SM BR SCT009 SCT017 20/19 A2995 RMK AO2 T02010193
KEFD - Houston/Ellingto, Texas, USA
Distance from station: SSE 37mi, 60km
Updated: 12/06/2022 12:54am
Mostly cloudy
Mostly cloudy
 Wind from SSE
Wind: SSE 10 mph , 17 km/h
Temperature: 70°F , 21°C
Dew Point: 68°F , 20°C
Humidity: 94%
Barometer: 29.92 inHg , 1013.2 hPa
Clouds: Mostly cloudy
Visibility: 7 miles , 11 km
Cloud details: Mostly cloudy 500 ft
2022/12/06 06:54 KEFD 060654Z 16009KT 7SM BKN005 21/20 A2992
 
KLVJ - Houston, Texas, USA
Distance from station: SSE 40mi, 64km
Updated: 12/06/2022 12:53am
Clear
Clear
 Wind from S
Wind: S 6 mph , 9 km/h
Temperature: 72°F , 22°C
Dew Point: 68°F , 20°C
Humidity: 88%
Barometer: 29.95 inHg , 1014.2 hPa
Clouds: Clear
Visibility: 9 miles , 14 km
2022/12/06 06:53 KLVJ 060653Z AUTO 19005KT 9SM CLR 22/20 A2995 RMK AO2 SLP140 T02170200
KUTS - Huntsville, Texas, USA
Distance from station: N 48mi, 78km
Updated: 12/06/2022 12:53am
Overcast
Overcast
 Wind from SSW
Wind: SSW 12 mph , 19 km/h, Gust: 21 mph , 33 km/h
Temperature: 72°F , 22°C
Dew Point: 66°F , 19°C
Humidity: 83%
Barometer: 29.90 inHg , 1012.5 hPa
Clouds: Overcast
Visibility: 10 miles , 16 km
Cloud details: Overcast 1700 ft
2022/12/06 06:53 KUTS 060653Z AUTO 20010G18KT 10SM OVC017 22/19 A2990 RMK AO2 SLP121 T02220189